Time;durP1;ratioP1;P1;durP2;ratioP2;P2;SDS_P1;SDS_P2;PMS_P1;PMS_P2;Temp;Humidity;BMP_temperature;BMP_pressure;BME280_temperature;BME280_humidity;BME280_pressure;Samples;Min_cycle;Max_cycle;Signal;HPM_P1;HPM_P2
2022/04/16 00:00:59;;;;;;;;;;;;;;;10.08;94.49;98430.66;4425687;32;20112;-81
2022/04/16 00:03:27;;;;;;;19.65;9.80;;;;;;;9.98;95.53;98438.75;4425123;32;20028;-81
2022/04/16 00:05:55;;;;;;;19.42;9.32;;;;;;;9.81;96.00;98437.59;4425107;32;20201;-81
2022/04/16 00:08:23;;;;;;;19.27;9.93;;;;;;;10.00;94.14;98448.13;4425116;32;20213;-81
2022/04/16 00:10:50;;;;;;;16.25;7.78;;;;;;;9.86;94.10;98442.59;4424732;32;20116;-80
2022/04/16 00:13:18;;;;;;;18.60;9.93;;;;;;;9.72;94.55;98447.38;4425312;32;20104;-81
2022/04/16 00:15:47;;;;;;;17.42;9.45;;;;;;;9.79;93.77;98456.59;4424782;32;20107;-80
2022/04/16 00:18:14;;;;;;;19.05;9.10;;;;;;;9.45;95.43;98449.09;4425223;32;20105;-81
2022/04/16 00:20:44;;;;;;;17.75;9.27;;;;;;;9.41;95.32;98430.31;4425303;32;20158;-81
2022/04/16 00:23:12;;;;;;;16.37;9.38;;;;;;;9.37;94.58;98448.50;4424768;32;20453;-80
2022/04/16 00:25:41;;;;;;;16.23;8.25;;;;;;;9.70;92.16;98444.84;4424976;32;20143;-81
2022/04/16 00:28:08;;;;;;;17.67;8.60;;;;;;;9.13;94.52;98440.63;4425241;32;20109;-81
2022/04/16 00:30:37;;;;;;;16.20;8.02;;;;;;;9.43;91.85;98436.25;4424998;32;20103;-80
2022/04/16 00:33:06;;;;;;;16.67;8.30;;;;;;;9.27;91.22;98432.50;4425098;32;20101;-80
2022/04/16 00:35:34;;;;;;;15.95;7.85;;;;;;;9.15;91.92;98444.03;4424855;32;20099;-81
2022/04/16 00:38:01;;;;;;;14.10;6.43;;;;;;;9.25;90.21;98435.12;4424682;32;20141;-80
2022/04/16 00:40:28;;;;;;;15.85;7.72;;;;;;;9.02;91.02;98421.25;4425012;32;20137;-80
2022/04/16 00:42:55;;;;;;;;;;;;;;;9.17;90.14;98437.09;4425249;32;20146;-80
2022/04/16 00:45:22;;;;;;;16.17;6.93;;;;;;;8.98;90.00;98423.09;4424732;32;19979;-80
2022/04/16 00:47:49;;;;;;;;;;;;;;;8.99;88.73;98428.19;4425064;32;20160;-81
2022/04/16 00:50:16;;;;;;;17.33;7.47;;;;;;;8.96;89.15;98443.72;4424880;32;20120;-80
2022/04/16 00:52:44;;;;;;;16.10;7.68;;;;;;;8.52;90.57;98439.88;4410603;32;20089;-80
2022/04/16 00:55:12;;;;;;;14.60;7.07;;;;;;;8.73;89.73;98441.00;4424527;32;20368;-80
2022/04/16 00:57:41;;;;;;;16.92;7.12;;;;;;;8.45;90.88;98417.78;4424879;32;20102;-80
2022/04/16 01:00:10;;;;;;;16.50;7.05;;;;;;;8.56;89.64;98431.19;4424439;32;20153;-81
2022/04/16 01:02:38;;;;;;;15.18;6.57;;;;;;;8.37;90.35;98422.28;4424954;32;20097;-81
2022/04/16 01:05:06;;;;;;;16.87;6.68;;;;;;;8.35;90.90;98434.34;4424252;32;20100;-80
2022/04/16 01:07:33;;;;;;;13.93;5.72;;;;;;;8.16;91.68;98435.69;4424336;32;20438;-81
2022/04/16 01:10:00;;;;;;;17.52;7.68;;;;;;;8.32;90.98;98431.84;4410689;32;20119;-80
2022/04/16 01:12:27;;;;;;;17.15;7.75;;;;;;;8.02;92.42;98426.66;4424166;32;20099;-81
2022/04/16 01:14:54;;;;;;;;;;;;;;;8.07;91.79;98427.34;4424938;32;20210;-80
2022/04/16 01:17:21;;;;;;;17.90;6.50;;;;;;;8.29;91.30;98429.34;4411035;32;19980;-81
2022/04/16 01:19:48;;;;;;;;;;;;;;;8.10;91.75;98422.16;4410766;32;20116;-80
2022/04/16 01:22:15;;;;;;;12.40;5.18;;;;;;;8.12;91.90;98420.38;4425507;32;19987;-80
2022/04/16 01:24:43;;;;;;;14.98;6.28;;;;;;;8.00;92.21;98430.97;4412542;32;20121;-80
2022/04/16 01:27:10;;;;;;;16.33;7.20;;;;;;;8.03;92.18;98430.06;4426152;32;20515;-80
2022/04/16 01:29:37;;;;;;;16.17;7.75;;;;;;;7.74;93.75;98430.78;4426234;32;20172;-80
2022/04/16 01:32:06;;;;;;;14.65;6.82;;;;;;;8.09;92.25;98435.88;4426269;32;20471;-80
2022/04/16 01:34:33;;;;;;;16.42;6.75;;;;;;;7.80;93.11;98438.34;4425890;32;20090;-80
2022/04/16 01:37:02;;;;;;;16.40;6.75;;;;;;;7.99;92.71;98439.59;4426229;32;20097;-80
2022/04/16 01:39:30;;;;;;;13.62;5.97;;;;;;;8.02;92.09;98441.22;4426249;32;20116;-80
2022/04/16 01:41:58;;;;;;;13.80;5.82;;;;;;;7.82;93.55;98437.44;4412163;32;20097;-80
2022/04/16 01:44:25;;;;;;;14.87;6.85;;;;;;;7.97;92.85;98440.47;4426197;32;20143;-80
2022/04/16 01:46:52;;;;;;;17.08;7.47;;;;;;;7.83;93.33;98436.53;4426128;32;20153;-80
2022/04/16 01:49:20;;;;;;;15.30;7.43;;;;;;;7.81;93.83;98430.59;4425762;32;20468;-80
2022/04/16 01:51:48;;;;;;;15.43;7.28;;;;;;;7.97;93.18;98438.75;4426241;32;20081;-80
2022/04/16 01:54:15;;;;;;;16.30;7.43;;;;;;;8.12;92.05;98434.94;4425718;32;20436;-80
2022/04/16 01:56:42;;;;;;;15.77;7.55;;;;;;;8.04;93.06;98435.16;4412413;32;20110;-80
2022/04/16 01:59:09;;;;;;;14.57;7.00;;;;;;;8.21;92.09;98439.00;4425977;32;20112;-80
2022/04/16 02:01:36;;;;;;;;;;;;;;;7.95;93.25;98437.94;4426104;32;20236;-80
2022/04/16 02:04:03;;;;;;;16.55;6.62;;;;;;;8.00;92.96;98435.28;4426087;32;20313;-80
2022/04/16 02:06:30;;;;;;;15.18;6.68;;;;;;;8.03;93.16;98436.03;4425882;32;20098;-80
2022/04/16 02:08:57;;;;;;;17.85;7.62;;;;;;;8.06;92.98;98437.69;4425545;32;20168;-81
2022/04/16 02:11:24;;;;;;;15.80;7.62;;;;;;;8.00;93.33;98437.84;4426083;32;20099;-80
2022/04/16 02:13:51;;;;;;;;;;;;;;;8.17;92.55;98434.81;4426440;32;20512;-80
2022/04/16 02:16:18;;;;;;;16.25;7.30;;;;;;;7.91;93.84;98425.25;4425734;32;19972;-80
2022/04/16 02:18:45;;;;;;;15.70;7.47;;;;;;;8.08;93.27;98433.31;4425895;32;20554;-80
2022/04/16 02:21:12;;;;;;;15.30;7.78;;;;;;;8.08;92.94;98435.91;4425940;32;20156;-80
2022/04/16 02:23:39;;;;;;;;;;;;;;;8.11;92.47;98434.12;4425914;32;20077;-80
2022/04/16 02:26:09;;;;;;;14.83;6.57;;;;;;;7.87;93.68;98434.75;4425859;32;19978;-80
2022/04/16 02:28:36;;;;;;;16.90;7.37;;;;;;;8.15;92.11;98432.28;4425767;32;20123;-80
2022/04/16 02:31:03;;;;;;;14.48;6.70;;;;;;;8.16;92.14;98425.41;4425591;32;20144;-80
2022/04/16 02:33:30;;;;;;;15.68;7.20;;;;;;;8.11;92.66;98430.69;4425864;32;20148;-81
2022/04/16 02:35:58;;;;;;;14.90;7.20;;;;;;;8.03;93.17;98423.19;4425656;32;20112;-80
2022/04/16 02:38:25;;;;;;;15.38;6.90;;;;;;;8.16;92.25;98428.00;4425511;32;20117;-80
2022/04/16 02:40:52;;;;;;;15.77;6.40;;;;;;;8.34;91.21;98427.50;4425994;32;20073;-80
2022/04/16 02:43:19;;;;;;;15.35;7.55;;;;;;;8.22;92.40;98423.53;4425626;32;20470;-80
2022/04/16 02:48:33;;;;;;;13.90;6.78;;;;;;;8.33;91.49;98418.09;4425758;32;20158;-80
2022/04/16 02:51:00;;;;;;;15.02;7.10;;;;;;;8.23;91.29;98401.25;4425377;32;20412;-80
2022/04/16 02:53:27;;;;;;;14.32;6.90;;;;;;;8.15;92.90;98416.03;4425736;32;20153;-80
2022/04/16 02:55:57;;;;;;;15.05;6.95;;;;;;;8.21;92.46;98419.28;4425634;32;20540;-80
2022/04/16 02:58:24;;;;;;;12.80;6.12;;;;;;;8.24;92.10;98420.94;4425429;32;20218;-80
2022/04/16 03:00:50;;;;;;;;;;;;;;;8.30;91.88;98423.34;4426040;32;20141;-80
2022/04/16 03:03:17;;;;;;;14.60;6.28;;;;;;;7.90;93.48;98418.41;4425760;32;19965;-80
2022/04/16 03:05:44;;;;;;;;;;;;;;;7.81;94.18;98420.34;4425502;32;20106;-80
2022/04/16 03:08:12;;;;;;;13.30;6.20;;;;;;;8.02;92.99;98424.06;4425544;32;20048;-80
2022/04/16 03:10:39;;;;;;;13.95;6.55;;;;;;;8.04;92.79;98412.03;4425925;32;20377;-80
2022/04/16 03:13:06;;;;;;;14.05;6.53;;;;;;;8.25;91.55;98414.91;4425432;32;20104;-80
2022/04/16 03:18:20;;;;;;;14.23;6.35;;;;;;;8.14;92.13;98422.91;4413888;32;20105;-80
2022/04/16 03:20:46;;;;;;;;;;;;;;;8.16;92.25;98417.72;4426007;32;20104;-80
2022/04/16 03:23:13;;;;;;;13.77;5.85;;;;;;;8.06;92.10;98417.97;4425696;32;19961;-80
2022/04/16 03:25:43;;;;;;;13.30;6.20;;;;;;;7.76;93.96;98411.91;4425135;32;20097;-80
2022/04/16 03:28:11;;;;;;;14.25;6.57;;;;;;;8.16;91.88;98420.28;4425626;32;20153;-80
2022/04/16 03:30:38;;;;;;;13.90;6.35;;;;;;;8.10;92.33;98419.59;4425604;32;20095;-80
2022/04/16 03:33:05;;;;;;;13.75;6.57;;;;;;;8.10;92.34;98426.44;4411481;32;20081;-80
2022/04/16 03:35:34;;;;;;;13.60;6.18;;;;;;;8.11;91.81;98426.41;4425387;32;20165;-80
2022/04/16 03:38:01;;;;;;;13.55;5.75;;;;;;;7.88;92.99;98431.31;4425547;32;20097;-80
2022/04/16 03:40:28;;;;;;;13.55;6.30;;;;;;;8.28;91.25;98433.63;4425293;32;20136;-80
2022/04/16 03:43:00;;;;;;;12.55;6.00;;;;;;;8.18;91.02;98433.94;4425466;32;20089;-80
2022/04/16 03:45:29;;;;;;;12.90;5.80;;;;;;;8.11;91.12;98428.97;4424861;32;20471;-80
2022/04/16 03:47:58;;;;;;;13.18;6.10;;;;;;;7.94;92.00;98435.44;4411361;32;20113;-80
2022/04/16 03:50:26;;;;;;;13.07;6.15;;;;;;;7.85;92.67;98436.50;4425407;32;20149;-80
2022/04/16 03:52:54;;;;;;;12.07;5.60;;;;;;;8.09;91.36;98437.63;4425386;32;20169;-80
2022/04/16 04:00:55;;;;;;;12.35;5.72;;;;;;;8.18;90.26;98432.19;4425102;32;20164;-80
2022/04/16 04:03:23;;;;;;;11.63;5.45;;;;;;;8.09;91.56;98422.19;4411625;32;20129;-80
2022/04/16 04:05:53;;;;;;;12.23;5.97;;;;;;;8.22;91.21;98426.13;4425111;32;20164;-80
2022/04/16 04:08:22;;;;;;;12.15;5.55;;;;;;;8.07;91.29;98427.34;4424747;32;20120;-80
2022/04/16 04:10:49;;;;;;;12.20;5.82;;;;;;;8.39;89.79;98431.66;4425236;32;20085;-80
2022/04/16 04:13:16;;;;;;;12.57;6.25;;;;;;;8.19;90.87;98431.34;4425172;32;20108;-80
2022/04/16 04:15:44;;;;;;;12.55;5.80;;;;;;;8.49;89.88;98439.09;4424741;32;20436;-80
2022/04/16 04:18:12;;;;;;;11.30;5.00;;;;;;;8.40;89.47;98440.22;4425122;32;20118;-80
2022/04/16 04:20:39;;;;;;;11.52;5.35;;;;;;;8.12;90.56;98442.66;4425100;32;20100;-81
2022/04/16 04:23:06;;;;;;;11.95;5.53;;;;;;;8.59;88.68;98441.38;4424784;32;20086;-81
2022/04/16 04:25:33;;;;;;;12.15;5.82;;;;;;;8.88;87.93;98434.56;4424933;32;20441;-80
2022/04/16 04:28:00;;;;;;;11.63;5.10;;;;;;;9.21;85.75;98436.09;4411291;32;20172;-80
2022/04/16 04:30:27;;;;;;;11.12;5.43;;;;;;;9.07;86.14;98434.84;4424459;32;20401;-80
2022/04/16 04:32:57;;;;;;;12.15;4.97;;;;;;;8.54;88.62;98448.41;4425123;32;20129;-80
2022/04/16 04:35:24;;;;;;;11.35;5.03;;;;;;;9.12;86.21;98441.53;4424711;32;20121;-80
2022/04/16 04:37:51;;;;;;;12.02;5.65;;;;;;;8.94;86.99;98447.25;4424978;32;20102;-80
2022/04/16 04:40:19;;;;;;;11.23;5.47;;;;;;;8.92;87.18;98452.41;4424889;32;20469;-80
2022/04/16 04:42:45;;;;;;;13.40;6.10;;;;;;;8.32;90.17;98450.69;4424584;32;20131;-80
2022/04/16 04:45:15;;;;;;;10.57;5.05;;;;;;;8.35;90.75;98462.63;4424801;32;20106;-81
2022/04/16 04:47:42;;;;;;;12.65;5.68;;;;;;;8.53;90.35;98451.84;4424948;32;20587;-80
2022/04/16 04:50:10;;;;;;;11.82;5.72;;;;;;;8.68;89.78;98466.00;4424333;32;20149;-80
2022/04/16 04:52:38;;;;;;;12.00;5.65;;;;;;;8.86;88.66;98457.75;4424743;32;20104;-80
2022/04/16 04:55:11;;;;;;;11.23;5.15;;;;;;;8.67;88.99;98461.75;4410686;32;20157;-80
2022/04/16 04:57:39;;;;;;;11.95;5.62;;;;;;;8.87;88.18;98468.91;4425628;32;20116;-80
2022/04/16 05:00:07;;;;;;;11.48;4.95;;;;;;;9.02;87.76;98475.31;4426431;32;20152;-81
2022/04/16 05:03:00;;;;;;;11.12;5.00;;;;;;;9.15;87.31;98480.06;4426521;32;20146;-80
2022/04/16 05:05:27;;;;;;;10.63;5.07;;;;;;;8.97;88.00;98467.75;4423574;32;20094;-80
2022/04/16 05:07:54;;;;;;;11.10;5.55;;;;;;;8.82;88.75;98476.72;4426267;32;20085;-80
2022/04/16 05:10:22;;;;;;;11.77;5.22;;;;;;;8.72;89.45;98465.03;4426365;32;20095;-80
2022/04/16 05:12:49;;;;;;;11.95;5.35;;;;;;;8.90;88.62;98463.66;4426243;32;20138;-80
2022/04/16 05:15:16;;;;;;;12.13;5.80;;;;;;;8.81;89.65;98476.78;4426329;32;20095;-80
2022/04/16 05:17:43;;;;;;;10.88;4.47;;;;;;;9.15;88.19;98474.06;4426087;32;20164;-80
2022/04/16 05:20:10;;;;;;;12.40;5.85;;;;;;;8.88;89.50;98481.72;4412474;32;20111;-80
2022/04/16 05:22:38;;;;;;;12.00;5.90;;;;;;;9.15;88.42;98477.50;4426393;32;20109;-81
2022/04/16 05:25:06;;;;;;;11.95;5.82;;;;;;;9.47;86.36;98475.66;4425932;32;20165;-80
2022/04/16 05:27:34;;;;;;;12.63;4.93;;;;;;;9.23;87.94;98475.50;4426493;32;20113;-81
2022/04/16 05:30:12;;;;;;;14.15;6.00;;;;;;;9.30;86.62;98471.03;4426141;32;20112;-81
2022/04/16 05:32:42;;;;;;;13.02;5.97;;;;;;;9.57;86.12;98474.47;4425987;32;20096;-80
2022/04/16 05:35:10;;;;;;;11.00;5.50;;;;;;;9.56;85.01;98472.78;4426190;32;20153;-80
2022/04/16 05:37:37;;;;;;;10.88;5.12;;;;;;;9.86;84.59;98469.19;4426377;32;20112;-81
2022/04/16 05:40:05;;;;;;;10.85;4.80;;;;;;;9.75;85.30;98460.13;4425934;32;20176;-81
2022/04/16 05:42:38;;;;;;;11.40;5.55;;;;;;;9.36;86.07;98459.69;4426258;32;20149;-81
2022/04/16 05:45:06;;;;;;;11.35;5.30;;;;;;;9.58;86.51;98465.84;4426246;32;20163;-81
2022/04/16 05:47:33;;;;;;;10.88;5.07;;;;;;;9.78;84.05;98452.31;4425865;32;20165;-81
2022/04/16 05:49:59;;;;;;;;;;;;;;;9.72;84.32;98463.66;4426408;32;20107;-81
2022/04/16 05:52:26;;;;;;;10.32;4.62;;;;;;;9.75;85.41;98452.41;4426287;32;19969;-81
2022/04/16 05:54:53;;;;;;;11.00;4.80;;;;;;;10.77;80.61;98453.19;4425772;32;20161;-81
2022/04/16 05:57:22;;;;;;;9.30;4.72;;;;;;;10.91;79.30;98451.75;4426298;32;20143;-81
2022/04/16 05:59:49;;;;;;;9.45;4.37;;;;;;;11.11;78.47;98445.00;4425766;32;20103;-81
2022/04/16 06:02:17;;;;;;;9.50;4.62;;;;;;;11.16;76.53;98448.25;4426018;32;20445;-81
2022/04/16 06:04:44;;;;;;;9.55;4.55;;;;;;;11.48;76.43;98436.63;4426118;32;20568;-81
2022/04/16 06:07:11;;;;;;;9.82;4.55;;;;;;;11.17;76.44;98439.63;4425346;32;20161;-81
2022/04/16 06:09:38;;;;;;;10.10;4.55;;;;;;;11.28;77.41;98440.03;4425839;32;20120;-81
2022/04/16 06:12:05;;;;;;;9.27;4.53;;;;;;;11.70;75.08;98445.22;4426072;32;20440;-81
2022/04/16 06:14:32;;;;;;;9.40;4.32;;;;;;;11.50;75.04;98417.59;4425603;32;20105;-81
2022/04/16 06:16:59;;;;;;;8.35;4.12;;;;;;;11.81;74.92;98450.81;4426064;32;20437;-81
2022/04/16 06:19:26;;;;;;;8.73;4.22;;;;;;;11.66;74.60;98437.66;4425908;32;20124;-81
2022/04/16 06:21:54;;;;;;;9.38;4.47;;;;;;;11.19;75.61;98440.38;4411744;32;20077;-81
2022/04/16 06:24:20;;;;;;;8.27;3.90;;;;;;;11.52;75.43;98467.47;4425860;32;20153;-81
2022/04/16 06:26:48;;;;;;;8.95;4.18;;;;;;;11.99;74.30;98469.06;4425989;32;20169;-81
2022/04/16 06:29:15;;;;;;;9.63;4.30;;;;;;;12.14;74.26;98469.25;4411724;32;20434;-81
2022/04/16 06:31:43;;;;;;;9.98;4.05;;;;;;;12.47;72.87;98449.78;4426105;32;20150;-81
2022/04/16 06:34:10;;;;;;;9.48;4.60;;;;;;;12.30;72.17;98440.97;4412110;32;20101;-81
2022/04/16 06:36:38;;;;;;;9.23;4.28;;;;;;;12.21;72.37;98450.88;4425686;32;20173;-81
2022/04/16 06:39:05;;;;;;;9.30;4.55;;;;;;;11.84;74.50;98442.94;4425766;32;20089;-81
2022/04/16 06:41:32;;;;;;;10.43;4.85;;;;;;;11.51;75.80;98444.28;4425893;32;20090;-81
2022/04/16 06:43:59;;;;;;;9.38;4.22;;;;;;;11.52;75.35;98439.06;4425398;32;20162;-80
2022/04/16 06:46:26;;;;;;;8.20;3.67;;;;;;;11.46;75.56;98449.62;4425767;32;20195;-81
2022/04/16 06:48:53;;;;;;;8.85;3.70;;;;;;;11.71;74.83;98452.06;4425403;32;20168;-81
2022/04/16 06:51:20;;;;;;;8.55;3.95;;;;;;;10.99;76.57;98448.91;4425755;32;20094;-81
2022/04/16 06:53:47;;;;;;;9.18;4.30;;;;;;;11.14;77.10;98458.62;4425769;32;20090;-81
2022/04/16 06:56:14;;;;;;;8.23;3.67;;;;;;;11.64;74.87;98450.62;4425478;32;20508;-81
2022/04/16 06:58:41;;;;;;;7.05;3.05;;;;;;;11.18;75.50;98460.22;4425533;32;20085;-81
2022/04/16 07:01:08;;;;;;;8.15;3.60;;;;;;;10.76;76.96;98482.47;4425816;32;20195;-81
2022/04/16 07:03:35;;;;;;;6.80;3.00;;;;;;;11.05;74.95;98464.13;4425435;32;20094;-81
2022/04/16 07:06:02;;;;;;;8.05;3.62;;;;;;;10.78;76.01;98441.97;4425523;32;20436;-81
2022/04/16 07:08:29;;;;;;;8.82;3.80;;;;;;;10.94;76.62;98468.87;4425498;32;20487;-81
2022/04/16 07:10:56;;;;;;;7.97;3.90;;;;;;;11.24;76.01;98459.97;4425230;32;20094;-81
2022/04/16 07:13:23;;;;;;;8.95;4.00;;;;;;;11.72;74.52;98464.09;4425844;32;20157;-81
2022/04/16 07:15:50;;;;;;;10.73;4.07;;;;;;;12.18;72.75;98467.38;4425555;32;20157;-81
2022/04/16 07:18:17;;;;;;;9.40;4.12;;;;;;;11.14;75.10;98460.38;4425169;32;20148;-81
2022/04/16 07:20:44;;;;;;;9.43;4.40;;;;;;;11.43;74.85;98454.91;4411088;32;20161;-80
2022/04/16 07:23:11;;;;;;;8.77;4.05;;;;;;;11.57;73.73;98452.63;4425459;32;20157;-81
2022/04/16 07:25:38;;;;;;;8.63;3.58;;;;;;;11.12;75.44;98447.53;4425029;32;20108;-81
2022/04/16 07:28:05;;;;;;;9.40;4.22;;;;;;;11.18;74.68;98456.78;4425602;32;20086;-81
2022/04/16 07:30:32;;;;;;;8.10;3.55;;;;;;;11.11;74.75;98471.66;4425424;32;20428;-81
2022/04/16 07:32:59;;;;;;;6.75;3.03;;;;;;;11.10;75.61;98480.31;4425193;32;20124;-81
2022/04/16 07:35:27;;;;;;;8.52;3.90;;;;;;;11.49;74.88;98477.09;4425286;32;20151;-81
2022/04/16 07:37:58;;;;;;;6.78;3.22;;;;;;;11.83;72.35;98485.22;4425147;32;20160;-81
2022/04/16 07:40:25;;;;;;;8.50;3.70;;;;;;;11.38;72.84;98485.28;4412178;32;20077;-81
2022/04/16 07:42:52;;;;;;;8.68;3.85;;;;;;;11.57;72.66;98481.03;4425474;32;20110;-81
2022/04/16 07:45:21;;;;;;;7.40;2.92;;;;;;;11.54;71.44;98499.25;4424914;32;20116;-81
2022/04/16 07:47:48;;;;;;;6.85;2.80;;;;;;;11.53;69.05;98499.31;4425411;32;20081;-81
2022/04/16 07:50:18;;;;;;;7.75;2.62;;;;;;;11.68;71.10;98514.22;4425335;32;20125;-81
2022/04/16 07:52:46;;;;;;;7.93;2.92;;;;;;;12.28;69.46;98510.06;4425496;32;20141;-81
2022/04/16 07:55:14;;;;;;;5.85;3.00;;;;;;;12.62;68.60;98495.66;4425454;32;20161;-81
2022/04/16 07:57:42;;;;;;;6.53;3.00;;;;;;;13.08;65.61;98506.56;4425642;32;20085;-81
2022/04/16 08:00:10;;;;;;;6.20;2.70;;;;;;;13.22;64.53;98510.25;4404086;32;228568;-80
2022/04/16 08:02:37;;;;;;;8.15;3.65;;;;;;;13.52;64.65;98501.97;4425504;32;20108;-81
2022/04/16 08:05:05;;;;;;;7.47;3.00;;;;;;;13.48;65.06;98498.66;4411472;32;20140;-81
2022/04/16 08:07:32;;;;;;;5.80;2.95;;;;;;;14.14;63.54;98509.28;4424979;32;20479;-81
2022/04/16 08:09:59;;;;;;;8.15;3.10;;;;;;;13.26;64.00;98495.38;4425226;32;20128;-81
2022/04/16 08:12:26;;;;;;;6.78;3.40;;;;;;;12.45;66.53;98489.50;4411796;32;20452;-81
2022/04/16 08:14:53;;;;;;;9.82;4.37;;;;;;;12.59;68.75;98519.94;4425277;32;20116;-81
2022/04/16 08:17:21;;;;;;;7.90;3.72;;;;;;;13.06;67.41;98526.53;4412168;32;20081;-81
2022/04/16 08:19:47;;;;;;;7.50;3.47;;;;;;;12.47;68.66;98510.13;4412660;32;20132;-81
2022/04/16 08:22:18;;;;;;;12.40;3.30;;;;;;;12.79;68.44;98511.31;4425504;32;20526;-81
2022/04/16 08:24:54;;;;;;;6.80;3.10;;;;;;;12.60;68.99;98520.78;4425720;32;20142;-81
2022/04/16 08:27:22;;;;;;;5.25;2.58;;;;;;;12.80;67.33;98514.75;4425103;32;20164;-81
2022/04/16 08:29:48;;;;;;;6.30;2.87;;;;;;;13.14;65.14;98504.53;4411724;32;20144;-81
2022/04/16 08:32:15;;;;;;;5.95;2.70;;;;;;;12.96;65.85;98500.19;4425220;32;20149;-81
2022/04/16 08:34:50;;;;;;;6.57;2.83;;;;;;;13.15;65.26;98526.09;4424884;32;20094;-81
2022/04/16 08:37:17;;;;;;;6.82;2.97;;;;;;;13.73;65.11;98513.06;4425347;32;20423;-81
2022/04/16 08:39:44;;;;;;;5.93;2.70;;;;;;;13.12;65.28;98503.78;4425518;32;20141;-81
2022/04/16 08:42:11;;;;;;;5.97;2.60;;;;;;;13.45;65.94;98511.78;4411328;32;20090;-81
2022/04/16 08:44:39;;;;;;;5.32;2.45;;;;;;;13.65;62.96;98500.47;4425689;32;20102;-81
2022/04/16 08:47:06;;;;;;;4.03;2.10;;;;;;;12.92;64.55;98519.38;4425738;32;20507;-81
2022/04/16 08:49:34;;;;;;;5.90;2.37;;;;;;;12.41;66.29;98518.16;4424967;32;20101;-81
2022/04/16 08:52:02;;;;;;;4.80;2.65;;;;;;;12.68;65.97;98518.72;4411719;32;20141;-81
2022/04/16 08:54:30;;;;;;;7.62;2.67;;;;;;;12.68;66.80;98531.66;4411562;32;20126;-81
2022/04/16 08:56:57;;;;;;;4.87;2.40;;;;;;;13.08;65.33;98522.09;4425252;32;20172;-81
2022/04/16 08:59:23;;;;;;;;;;;;;;;12.89;66.56;98520.34;4425948;32;20130;-81
2022/04/16 09:01:51;;;;;;;3.10;1.85;;;;;;;12.28;67.59;98520.41;4425759;32;20309;-81
2022/04/16 09:04:22;;;;;;;9.82;2.55;;;;;;;12.92;67.08;98527.97;4424836;32;20120;-81
2022/04/16 09:06:57;;;;;;;4.78;2.17;;;;;;;13.19;64.63;98538.91;4411484;32;20081;-81
2022/04/16 09:09:24;;;;;;;4.62;1.92;;;;;;;12.92;65.42;98543.53;4425094;32;20072;-81
2022/04/16 09:11:52;;;;;;;3.85;1.85;;;;;;;12.96;65.90;98541.62;4425896;32;20085;-81
2022/04/16 09:14:19;;;;;;;4.30;1.98;;;;;;;13.19;63.24;98556.19;4426590;32;20197;-81
2022/04/16 09:16:46;;;;;;;4.65;2.10;;;;;;;12.64;66.42;98548.22;4425652;32;20641;-81
2022/04/16 09:19:17;;;;;;;2.58;1.30;;;;;;;12.19;65.61;98559.59;4425601;32;20117;-81
2022/04/16 09:21:44;;;;;;;3.97;1.87;;;;;;;11.87;66.74;98558.31;4412390;32;20413;-81
2022/04/16 09:24:12;;;;;;;3.35;1.80;;;;;;;13.10;64.36;98564.34;4424567;32;20129;-81
2022/04/16 09:26:40;;;;;;;4.82;1.90;;;;;;;13.24;61.55;98560.25;4425205;32;20153;-81
2022/04/16 09:29:17;;;;;;;3.33;1.62;;;;;;;12.83;63.20;98575.00;4398984;32;20069;-81
2022/04/16 09:31:51;;;;;;;2.42;1.50;;;;;;;12.73;63.00;98568.53;4411288;32;20170;-81
2022/04/16 09:34:23;;;;;;;5.57;1.70;;;;;;;12.85;63.82;98587.88;4411284;32;20114;-81
2022/04/16 09:36:51;;;;;;;3.50;1.60;;;;;;;12.63;63.67;98578.44;4411265;32;20164;-81
2022/04/16 09:39:22;;;;;;;3.00;1.40;;;;;;;12.53;62.22;98568.53;4424306;32;20157;-81
2022/04/16 09:41:53;;;;;;;2.37;1.30;;;;;;;12.27;65.73;98575.66;4411162;32;20173;-81
2022/04/16 09:44:25;;;;;;;4.03;1.50;;;;;;;12.23;61.67;98514.59;4413122;32;20101;-81
2022/04/16 09:46:55;;;;;;;3.25;1.52;;;;;;;12.01;62.37;98568.09;4426845;32;20152;-81
2022/04/16 09:49:23;;;;;;;2.90;1.40;;;;;;;12.21;61.69;98552.59;4412943;32;20082;-81
2022/04/16 09:51:50;;;;;;;3.40;1.70;;;;;;;12.89;60.13;98560.97;4412395;32;20129;-81
2022/04/16 09:54:18;;;;;;;3.92;1.70;;;;;;;13.10;60.57;98565.19;4426379;32;20150;-81
2022/04/16 09:56:47;;;;;;;2.87;1.58;;;;;;;13.79;58.51;98554.25;4426452;32;20100;-81
2022/04/16 09:59:15;;;;;;;5.00;1.67;;;;;;;13.65;57.89;98541.94;4412342;32;20155;-81
2022/04/16 10:01:48;;;;;;;3.20;1.48;;;;;;;13.42;59.58;98550.81;4412913;32;20380;-81
2022/04/16 10:04:17;;;;;;;3.28;1.60;;;;;;;13.59;57.95;98537.03;4426300;32;20474;-81
2022/04/16 10:06:48;;;;;;;4.90;1.90;;;;;;;13.68;60.03;98538.34;4409362;32;20587;-81
2022/04/16 10:09:22;;;;;;;3.67;1.60;;;;;;;13.69;58.00;98535.69;4409746;32;20086;-81
2022/04/16 10:14:55;;;;;;;6.47;2.10;;;;;;;13.85;57.75;98538.41;4409830;32;20105;-81
2022/04/16 10:17:22;;;;;;;5.22;2.22;;;;;;;13.87;57.06;98540.00;4410841;32;20119;-81
2022/04/16 10:19:49;;;;;;;4.03;2.12;;;;;;;13.64;55.31;98542.88;4410279;32;20090;-80
2022/04/16 10:22:27;;;;;;;3.75;1.70;;;;;;;14.11;56.35;98529.34;4410753;32;20146;-81
2022/04/16 10:24:57;;;;;;;4.68;1.77;;;;;;;13.82;57.43;98543.72;4409609;32;20124;-81
2022/04/16 10:27:28;;;;;;;5.47;2.30;;;;;;;13.79;57.31;98539.53;4409708;32;20093;-81
2022/04/16 10:30:03;;;;;;;8.23;2.50;;;;;;;13.63;57.46;98554.16;4411251;32;20148;-81
2022/04/16 10:32:40;;;;;;;5.25;2.37;;;;;;;13.51;59.40;98554.72;4411032;32;20143;-81
2022/04/16 10:35:12;;;;;;;;;;;;;;;14.14;55.32;98550.81;4410899;32;20196;-81
2022/04/16 10:37:42;;;;;;;5.30;2.40;;;;;;;13.88;55.26;98556.41;4410677;32;20006;-81
2022/04/16 10:40:23;;;;;;;5.05;2.30;;;;;;;13.53;56.42;98551.16;4410921;32;20155;-80
2022/04/16 10:42:52;;;;;;;4.65;2.15;;;;;;;13.36;58.92;98530.34;4410818;32;20138;-81
2022/04/16 10:45:20;;;;;;;4.15;2.28;;;;;;;14.13;56.02;98548.25;4409582;32;20151;-81
2022/04/16 10:47:50;;;;;;;6.35;2.70;;;;;;;13.34;56.46;98550.31;4411263;32;20167;-80
2022/04/16 10:50:18;;;;;;;5.37;2.20;;;;;;;12.55;59.20;98553.81;4411460;32;20090;-81
2022/04/16 10:52:56;;;;;;;6.20;2.70;;;;;;;12.50;59.19;98545.37;4411093;32;20434;-81
2022/04/16 10:55:36;;;;;;;8.43;2.80;;;;;;;12.81;59.85;98553.50;4409747;32;20449;-81
2022/04/16 10:58:04;;;;;;;5.30;2.55;;;;;;;13.00;59.24;98559.56;4409535;32;20104;-79
2022/04/16 11:00:45;;;;;;;6.45;2.80;;;;;;;12.12;60.72;98558.16;4410563;32;20122;-78
2022/04/16 11:03:17;;;;;;;6.93;2.87;;;;;;;12.05;61.52;98552.41;4410265;32;20102;-78
2022/04/16 11:05:45;;;;;;;6.32;2.55;;;;;;;12.01;60.97;98553.41;4410340;32;20106;-78
2022/04/16 11:08:16;;;;;;;8.57;3.12;;;;;;;11.71;62.61;98546.88;4408958;32;20104;-78
2022/04/16 11:10:43;;;;;;;6.65;2.83;;;;;;;11.57;63.74;98560.31;4410568;32;20100;-78
2022/04/16 11:13:12;;;;;;;5.87;2.72;;;;;;;11.78;61.19;98568.97;4410325;32;20117;-78
2022/04/16 11:15:40;;;;;;;6.22;2.78;;;;;;;11.28;61.00;98575.19;4408691;32;20156;-78
2022/04/16 11:18:09;;;;;;;7.18;3.05;;;;;;;11.10;62.28;98567.28;4410359;32;20161;-78
2022/04/16 11:20:36;;;;;;;5.50;2.30;;;;;;;11.19;63.15;98562.63;4410757;32;20146;-80
2022/04/16 11:23:09;;;;;;;6.22;3.10;;;;;;;11.18;62.39;98558.34;4410393;32;20120;-81
2022/04/16 11:34:17;;;;;;;7.95;3.17;;;;;;;11.37;61.64;98570.56;4409659;32;20163;-80
2022/04/16 11:36:48;;;;;;;9.02;3.45;;;;;;;11.42;62.35;98564.34;4409966;32;20460;-80
2022/04/16 11:39:22;;;;;;;6.30;2.35;;;;;;;11.44;62.10;98574.63;4411007;32;20111;-80
2022/04/16 11:41:59;;;;;;;7.05;2.97;;;;;;;10.95;62.79;98578.97;4410451;32;20083;-80
2022/04/16 11:44:33;;;;;;;;;;;;;;;10.49;64.24;98572.84;4410236;32;20434;-80
2022/04/16 11:47:02;;;;;;;11.15;3.70;;;;;;;10.52;64.29;98574.47;4409202;32;20359;-80
2022/04/16 11:49:30;;;;;;;7.57;2.90;;;;;;;10.45;65.24;98576.44;4410310;32;20093;-80
2022/04/16 11:51:58;;;;;;;7.80;3.50;;;;;;;11.52;61.93;98572.59;4408732;32;20148;-80
2022/04/16 11:54:29;;;;;;;4.93;2.42;;;;;;;11.29;62.02;98576.88;4410113;32;20444;-80
2022/04/16 11:56:57;;;;;;;7.10;3.25;;;;;;;11.80;61.50;98544.81;4410939;32;20123;-81
2022/04/16 11:59:25;;;;;;;7.68;3.03;;;;;;;11.64;61.19;98553.19;4410577;32;20172;-80
2022/04/16 12:02:05;;;;;;;7.05;2.58;;;;;;;11.52;61.29;98545.00;4409738;32;20082;-80
2022/04/16 12:04:41;;;;;;;5.37;2.50;;;;;;;11.35;61.59;98537.03;4410467;32;20432;-80